Catacamas, Honduras
Current Conditions -  °F | °C
As of 12:00 AM on Sunday 21 Dec 2014 (Local Time) from MHCA Reporting Station
Scattered Clouds Scattered Clouds  
Wind Chill: 68°   Ceiling: Unl
Heat Index: 68°   Visibility: 6mi
Dew Point: 66°   Wind: 3mph
Humidity: 94%   Direction: 100°E
Pressure: 30.06"   Gusts: NA
Location:  14.85°N, 85.89°W
Report Text: MHCA 210600Z 10003KT 9999 SCT028 20/19 Q1018
Loading
Personal Weather Stations






























Interactive Weather Map New forecast layout! Learn more

10-Day Weather Forecast

Advertisements
Track Severe Weather on mobile